Accueil
METAR-TAF:

METAR-TAF

Aéroports :

Gibraltar, Gibraltar

Aéroport international de Gibraltar

latitude: 36-09N, longitude: 005-21W, altitude: 5 m

Observation

Le bulletin a été fait il y a 2 heures et 52 minutes, à 19:50 UTC
Vent 11 kt de ouest/sud-ouest
Température 23°C
Humidité 73%
Pression 1015 hPa
Visibilité 10 km ou plus

METAR: LXGB 271950Z AUTO 24011KT 9999 // NCD 23/18 Q1015

Heure: 00:42 (22:42 UTC)

Prévision

Le bulletin a été fait il y a 6 heures et 25 minutes, à 16:17 UTC
Prévision valable du 27 à 18 UTC au 27 à 22 UTC
Vent 14 kt de ouest
Visibilité 10 km ou plus
Quelques nuages à une hauteur de 3500 ft
Temporairement
du 27 à 18 UTC au 27 à 22 UTC
Vent 19 kt de ouest/sud-ouest avec des rafales jusqu'à 29 kt

TAF: LXGB 271617Z 2718/2722 27014KT 9999 FEW035 TEMPO 2718/2722 25019G29KT 520002

Observations et prévisions météorologiques de plus de 4000 aéroports (messages METAR et TAF).

Les stations disponibles sont représentées par des disques jaunes et rouges sur la carte.

Passer la souris dessus pour voir le nom de la station.

Cliquer dessus pour voir les observations et prévisions météorologiques.

Pour changer de carte: cliquez sur les boutons verts avec une croix noire pour zoomer, sur le bouton vert avec un tiret pour effectuer un zoom arrière, ou sur les flèches vertes pour les cartes adjacentes.


METAR-TAF: